createdAt,value
2022-10-16T00:01:40.638Z,14.10
2022-10-16T00:04:07.508Z,14.10
2022-10-16T00:06:34.496Z,14.10
2022-10-16T00:09:01.614Z,14.10
2022-10-16T00:11:37.844Z,14.10
2022-10-16T00:14:10.110Z,14.10
2022-10-16T00:16:37.432Z,14.10
2022-10-16T00:19:05.311Z,14.00
2022-10-16T00:21:34.318Z,14.00
2022-10-16T00:24:11.716Z,14.00
2022-10-16T00:26:40.298Z,14.00
2022-10-16T00:29:07.685Z,15.60
2022-10-16T00:31:35.038Z,14.00
2022-10-16T00:34:02.426Z,14.00
2022-10-16T00:36:29.716Z,14.80
2022-10-16T00:41:28.675Z,13.80
2022-10-16T00:43:58.773Z,14.50
2022-10-16T00:46:43.407Z,13.60
2022-10-16T00:49:17.284Z,15.50
2022-10-16T00:51:54.737Z,13.70
2022-10-16T00:54:30.715Z,15.70
2022-10-16T00:57:02.420Z,13.60
2022-10-16T00:59:41.174Z,15.00
2022-10-16T01:02:14.002Z,13.50
2022-10-16T01:04:45.944Z,13.50
2022-10-16T01:07:42.182Z,13.40
2022-10-16T01:10:35.234Z,13.40
2022-10-16T01:13:13.197Z,13.30
2022-10-16T01:16:01.983Z,13.30
2022-10-16T01:18:40.167Z,13.30
2022-10-16T01:21:37.598Z,13.20
2022-10-16T01:24:17.745Z,13.20
2022-10-16T01:27:12.526Z,13.20
2022-10-16T01:29:53.782Z,13.10
2022-10-16T01:32:43.132Z,14.20
2022-10-16T01:35:30.930Z,13.20
2022-10-16T01:38:22.259Z,13.20
2022-10-16T01:40:59.438Z,13.20
2022-10-16T01:43:46.224Z,14.20
2022-10-16T01:46:18.208Z,14.40
2022-10-16T01:48:45.915Z,15.50
2022-10-16T01:51:17.645Z,14.20
2022-10-16T01:53:51.347Z,15.10
2022-10-16T01:56:23.510Z,13.70
2022-10-16T01:58:58.742Z,15.10
2022-10-16T02:01:32.504Z,13.50
2022-10-16T02:04:08.465Z,14.30
2022-10-16T02:06:36.801Z,15.50
2022-10-16T02:09:03.938Z,13.60
2022-10-16T02:11:31.138Z,15.50
2022-10-16T02:14:06.751Z,13.60
2022-10-16T02:16:44.130Z,13.60
2022-10-16T02:19:14.767Z,15.60
2022-10-16T02:21:54.925Z,15.10
2022-10-16T02:24:52.803Z,13.40
2022-10-16T02:27:29.469Z,13.70
2022-10-16T02:30:20.531Z,13.70
2022-10-16T02:32:50.355Z,13.60
2022-10-16T02:35:21.120Z,13.60
2022-10-16T02:37:51.093Z,15.40
2022-10-16T02:40:22.849Z,13.60
2022-10-16T02:42:54.593Z,13.60
2022-10-16T02:45:24.443Z,14.20
2022-10-16T02:47:51.446Z,13.10
2022-10-16T02:50:18.612Z,13.60
2022-10-16T02:52:45.605Z,13.50
2022-10-16T02:55:12.523Z,15.70
2022-10-16T02:57:41.270Z,15.40
2022-10-16T03:00:16.152Z,13.50
2022-10-16T03:02:43.074Z,13.50
2022-10-16T03:05:11.273Z,13.50
2022-10-16T03:07:38.253Z,13.40
2022-10-16T03:10:06.639Z,15.20
2022-10-16T03:12:33.990Z,13.40
2022-10-16T03:15:01.753Z,15.10
2022-10-16T03:17:29.015Z,13.40
2022-10-16T03:19:56.271Z,13.40
2022-10-16T03:22:23.386Z,13.40
2022-10-16T03:24:50.384Z,13.40
2022-10-16T03:27:17.232Z,13.40
2022-10-16T03:29:44.105Z,13.40
2022-10-16T03:32:10.953Z,13.40
2022-10-16T03:34:37.871Z,15.60
2022-10-16T03:37:04.912Z,15.50
2022-10-16T03:39:31.828Z,13.40
2022-10-16T03:41:58.870Z,13.60
2022-10-16T03:44:25.794Z,13.40
2022-10-16T03:46:52.650Z,13.50
2022-10-16T03:49:19.618Z,13.50
2022-10-16T03:51:47.035Z,15.20
2022-10-16T03:54:14.183Z,15.10
2022-10-16T03:56:40.998Z,14.60
2022-10-16T03:59:07.876Z,13.50
2022-10-16T04:01:34.751Z,13.50
2022-10-16T04:04:01.636Z,13.60
2022-10-16T04:06:28.444Z,14.90
2022-10-16T04:08:55.478Z,15.00
2022-10-16T04:11:22.276Z,14.50
2022-10-16T04:13:49.620Z,13.70
2022-10-16T04:16:16.548Z,13.60
2022-10-16T04:18:43.433Z,13.70
2022-10-16T04:21:10.286Z,14.60
2022-10-16T04:23:37.155Z,14.90
2022-10-16T04:26:04.161Z,14.90
2022-10-16T04:28:31.295Z,15.60
2022-10-16T04:30:59.326Z,13.80
2022-10-16T04:33:26.186Z,13.80
2022-10-16T04:36:04.558Z,13.80
2022-10-16T04:38:32.338Z,13.80
2022-10-16T04:41:00.917Z,15.90
2022-10-16T04:45:55.676Z,13.30
2022-10-16T04:48:22.864Z,13.90
2022-10-16T04:50:53.079Z,13.90
2022-10-16T04:53:22.494Z,13.90
2022-10-16T04:55:49.388Z,15.40
2022-10-16T04:58:16.297Z,14.00
2022-10-16T05:00:43.436Z,13.90
2022-10-16T05:03:10.661Z,13.90
2022-10-16T05:05:37.984Z,16.10
2022-10-16T05:08:05.681Z,15.50
2022-10-16T05:10:32.734Z,14.70
2022-10-16T05:12:59.748Z,13.90
2022-10-16T05:15:26.816Z,13.80
2022-10-16T05:17:55.885Z,13.80
2022-10-16T05:20:24.156Z,15.60
2022-10-16T05:22:51.036Z,14.40
2022-10-16T05:25:18.420Z,15.20
2022-10-16T05:27:49.725Z,13.90
2022-10-16T05:30:18.394Z,13.80
2022-10-16T05:32:50.943Z,13.90
2022-10-16T05:35:19.859Z,13.80
2022-10-16T05:37:47.438Z,13.80
2022-10-16T05:40:15.121Z,14.30
2022-10-16T05:42:42.029Z,13.80
2022-10-16T05:45:13.036Z,16.30
2022-10-16T05:47:40.190Z,13.70
2022-10-16T05:50:08.878Z,15.10
2022-10-16T05:52:35.931Z,13.70
2022-10-16T05:55:03.075Z,13.70
2022-10-16T05:57:30.870Z,13.70
2022-10-16T05:59:57.858Z,15.00
2022-10-16T06:02:24.877Z,14.70
2022-10-16T06:04:54.692Z,14.30
2022-10-16T06:07:22.166Z,13.70
2022-10-16T06:09:51.044Z,13.70
2022-10-16T06:12:18.098Z,13.70
2022-10-16T06:14:47.984Z,15.00
2022-10-16T06:17:16.248Z,14.00
2022-10-16T06:19:43.086Z,13.70
2022-10-16T06:22:10.207Z,15.80
2022-10-16T06:24:37.144Z,13.70
2022-10-16T06:27:05.756Z,13.70
2022-10-16T06:29:32.664Z,15.00
2022-10-16T06:31:59.718Z,13.70
2022-10-16T06:34:26.616Z,13.70
2022-10-16T06:36:54.467Z,13.70
2022-10-16T06:39:21.295Z,13.70
2022-10-16T06:41:48.286Z,13.70
2022-10-16T06:44:18.037Z,15.10
2022-10-16T06:46:44.981Z,15.80
2022-10-16T06:49:11.801Z,13.70
2022-10-16T06:51:43.229Z,15.40
2022-10-16T06:54:10.502Z,15.50
2022-10-16T06:56:37.459Z,13.80
2022-10-16T06:59:04.505Z,13.80
2022-10-16T07:01:33.930Z,13.80
2022-10-16T07:04:03.142Z,13.80
2022-10-16T07:06:34.336Z,13.90
2022-10-16T07:09:07.442Z,13.90
2022-10-16T07:11:34.871Z,14.00
2022-10-16T07:14:01.854Z,14.00
2022-10-16T07:16:32.315Z,14.00
2022-10-16T07:19:02.915Z,14.10
2022-10-16T07:21:37.031Z,14.90
2022-10-16T07:24:14.137Z,14.20
2022-10-16T07:26:43.210Z,14.30
2022-10-16T07:29:22.649Z,15.30
2022-10-16T07:31:50.817Z,14.50
2022-10-16T07:34:22.517Z,14.80
2022-10-16T07:36:51.490Z,14.70
2022-10-16T07:39:18.550Z,14.90
2022-10-16T07:41:45.781Z,15.00
2022-10-16T07:44:12.802Z,15.20
2022-10-16T07:46:40.541Z,13.30
2022-10-16T07:49:07.623Z,16.90
2022-10-16T07:51:34.602Z,16.80
2022-10-16T07:54:01.507Z,17.20
2022-10-16T07:56:28.462Z,16.00
2022-10-16T07:58:55.368Z,17.20
2022-10-16T08:01:22.463Z,16.30
2022-10-16T08:03:52.221Z,17.60
2022-10-16T08:06:25.129Z,16.50
2022-10-16T08:08:56.780Z,16.70
2022-10-16T08:11:24.418Z,16.80
2022-10-16T08:13:51.281Z,16.90
2022-10-16T08:16:18.883Z,17.00
2022-10-16T08:18:45.924Z,17.80
2022-10-16T08:21:21.210Z,18.30
2022-10-16T08:23:52.943Z,17.40
2022-10-16T08:26:27.163Z,17.50
2022-10-16T08:28:55.119Z,17.60
2022-10-16T08:31:22.986Z,17.80
2022-10-16T08:33:50.201Z,17.80
2022-10-16T08:36:17.892Z,18.00
2022-10-16T08:38:44.949Z,19.20
2022-10-16T08:41:38.043Z,18.20
2022-10-16T08:44:40.254Z,18.30
2022-10-16T08:47:33.630Z,18.40
2022-10-16T08:50:15.806Z,18.50
2022-10-16T08:52:45.930Z,18.60
2022-10-16T08:55:38.157Z,18.70
2022-10-16T08:58:15.591Z,18.80
2022-10-16T09:00:47.509Z,18.90
2022-10-16T09:04:08.159Z,19.80
2022-10-16T09:06:51.318Z,19.10
2022-10-16T09:10:07.041Z,19.20
2022-10-16T09:13:03.358Z,19.30
2022-10-16T09:16:02.285Z,19.50
2022-10-16T09:19:16.106Z,19.60
2022-10-16T09:21:46.578Z,19.80
2022-10-16T09:24:25.551Z,20.90
2022-10-16T09:26:54.068Z,19.90
2022-10-16T09:29:24.437Z,20.10
2022-10-16T09:31:53.899Z,20.10
2022-10-16T09:34:35.356Z,20.30
2022-10-16T09:37:10.763Z,20.30
2022-10-16T09:39:55.600Z,21.10
2022-10-16T09:42:36.570Z,21.70
2022-10-16T09:45:04.735Z,20.60
2022-10-16T09:47:37.561Z,20.70
2022-10-16T09:50:22.653Z,20.80
2022-10-16T09:52:49.650Z,20.90
2022-10-16T09:55:19.417Z,21.10
2022-10-16T09:57:54.647Z,21.20
2022-10-16T10:00:24.101Z,21.40
2022-10-16T10:02:52.441Z,22.70
2022-10-16T10:05:30.488Z,21.70
2022-10-16T10:08:06.999Z,21.90
2022-10-16T10:10:41.979Z,22.00
2022-10-16T10:13:25.080Z,22.80
2022-10-16T10:15:53.089Z,22.50
2022-10-16T10:18:24.763Z,22.30
2022-10-16T10:21:06.693Z,22.50
2022-10-16T10:23:33.681Z,22.60
2022-10-16T10:26:18.651Z,24.00
2022-10-16T10:29:07.889Z,22.80
2022-10-16T10:31:57.802Z,22.90
2022-10-16T10:35:15.482Z,23.00
2022-10-16T10:38:16.637Z,23.10
2022-10-16T10:40:53.439Z,23.20
2022-10-16T10:43:53.423Z,23.30
2022-10-16T10:46:44.772Z,23.40
2022-10-16T10:49:50.542Z,23.50
2022-10-16T10:52:57.309Z,23.60
2022-10-16T10:55:45.585Z,23.70
2022-10-16T10:58:33.615Z,24.00
2022-10-16T11:01:13.067Z,24.10
2022-10-16T11:04:30.918Z,24.30
2022-10-16T11:07:12.740Z,24.50
2022-10-16T11:09:48.869Z,24.70
2022-10-16T11:12:45.332Z,24.90
2022-10-16T11:15:38.752Z,25.20
2022-10-16T11:18:23.173Z,25.50
2022-10-16T11:20:58.977Z,25.70
2022-10-16T11:23:45.822Z,27.60
2022-10-16T11:26:21.528Z,26.00
2022-10-16T11:28:57.786Z,26.20
2022-10-16T11:31:40.336Z,26.20
2022-10-16T11:34:35.581Z,26.20
2022-10-16T11:37:18.176Z,26.20
2022-10-16T11:39:46.602Z,26.10
2022-10-16T11:42:22.455Z,27.30
2022-10-16T11:45:07.998Z,25.70
2022-10-16T11:48:03.056Z,25.60
2022-10-16T11:50:43.097Z,25.50
2022-10-16T11:53:46.291Z,25.30
2022-10-16T11:56:22.445Z,25.20
2022-10-16T11:59:08.744Z,25.10
2022-10-16T12:01:47.091Z,25.10
2022-10-16T12:04:25.171Z,25.00
2022-10-16T12:07:12.386Z,25.10
2022-10-16T12:09:42.239Z,26.40
2022-10-16T12:12:36.957Z,25.70
2022-10-16T12:18:25.999Z,25.80
2022-10-16T12:21:05.947Z,26.10
2022-10-16T12:23:38.828Z,26.10
2022-10-16T12:26:07.477Z,26.20
2022-10-16T12:28:35.025Z,26.20
2022-10-16T12:31:10.984Z,26.20
2022-10-16T12:33:43.816Z,26.20
2022-10-16T12:36:28.958Z,26.10
2022-10-16T12:39:01.916Z,26.20
2022-10-16T12:41:40.802Z,26.00
2022-10-16T12:44:27.272Z,26.00
2022-10-16T12:46:54.318Z,26.00
2022-10-16T12:49:39.572Z,26.00
2022-10-16T12:52:30.722Z,26.00
2022-10-16T12:55:01.921Z,26.00
2022-10-16T12:58:10.846Z,26.50
2022-10-16T13:00:59.674Z,26.20
2022-10-16T13:03:55.523Z,26.20
2022-10-16T13:07:00.609Z,26.20
2022-10-16T13:10:18.687Z,26.40
2022-10-16T13:13:20.789Z,26.40
2022-10-16T13:16:21.965Z,26.30
2022-10-16T13:19:04.094Z,26.30
2022-10-16T13:21:45.810Z,26.20
2022-10-16T13:24:46.222Z,26.10
2022-10-16T13:27:37.052Z,26.00
2022-10-16T13:30:21.552Z,26.00
2022-10-16T13:32:59.344Z,25.80
2022-10-16T13:35:36.018Z,25.80
2022-10-16T13:38:14.393Z,25.70
2022-10-16T13:40:54.327Z,25.60
2022-10-16T13:43:30.490Z,25.50
2022-10-16T13:46:16.058Z,25.50
2022-10-16T13:48:44.069Z,25.40
2022-10-16T13:51:18.013Z,25.60
2022-10-16T13:53:47.034Z,25.20
2022-10-16T13:56:24.061Z,25.20
2022-10-16T13:59:24.148Z,25.10
2022-10-16T14:01:55.113Z,25.00
2022-10-16T14:04:23.151Z,25.00
2022-10-16T14:06:54.934Z,24.90
2022-10-16T14:09:29.111Z,24.80
2022-10-16T14:12:08.005Z,24.80
2022-10-16T14:14:53.030Z,24.70
2022-10-16T14:17:27.966Z,24.60
2022-10-16T14:20:02.459Z,24.60
2022-10-16T14:22:41.424Z,24.40
2022-10-16T14:25:20.407Z,24.40
2022-10-16T14:28:18.158Z,24.30
2022-10-16T14:31:00.912Z,24.20
2022-10-16T14:33:35.250Z,24.50
2022-10-16T14:36:13.457Z,24.10
2022-10-16T14:38:59.019Z,24.00
2022-10-16T14:41:26.203Z,24.00
2022-10-16T14:43:58.654Z,24.00
2022-10-16T14:46:38.929Z,25.10
2022-10-16T14:49:11.585Z,24.00
2022-10-16T14:51:45.761Z,24.10
2022-10-16T14:54:19.167Z,24.20
2022-10-16T14:56:55.782Z,24.30
2022-10-16T14:59:41.614Z,24.40
2022-10-16T15:02:40.449Z,24.50
2022-10-16T15:05:20.036Z,24.60
2022-10-16T15:07:47.694Z,24.70
2022-10-16T15:10:16.022Z,24.70
2022-10-16T15:12:43.905Z,24.70
2022-10-16T15:15:37.985Z,24.60
2022-10-16T15:18:05.868Z,24.50
2022-10-16T15:20:39.447Z,24.40
2022-10-16T15:23:17.353Z,24.30
2022-10-16T15:25:48.425Z,24.40
2022-10-16T15:28:17.592Z,23.90
2022-10-16T15:30:48.698Z,23.80
2022-10-16T15:33:33.218Z,25.40
2022-10-16T15:36:04.154Z,23.50
2022-10-16T15:38:34.684Z,23.30
2022-10-16T15:41:01.691Z,24.00
2022-10-16T15:43:29.876Z,23.00
2022-10-16T15:46:13.231Z,22.80
2022-10-16T15:48:40.192Z,22.70
2022-10-16T15:51:08.873Z,22.60
2022-10-16T15:53:36.719Z,22.40
2022-10-16T15:56:05.632Z,22.30
2022-10-16T15:58:32.931Z,22.20
2022-10-16T16:01:02.644Z,22.10
2022-10-16T16:03:32.671Z,21.90
2022-10-16T16:06:06.283Z,21.80
2022-10-16T16:08:34.610Z,21.80
2022-10-16T16:11:16.111Z,21.60
2022-10-16T16:13:43.475Z,21.50
2022-10-16T16:16:13.945Z,21.40
2022-10-16T16:18:41.974Z,21.40
2022-10-16T16:21:12.490Z,21.90
2022-10-16T16:23:39.495Z,23.10
2022-10-16T16:26:33.441Z,23.10
2022-10-16T16:29:00.823Z,20.90
2022-10-16T16:31:31.362Z,20.80
2022-10-16T16:33:59.401Z,20.70
2022-10-16T16:36:26.712Z,20.60
2022-10-16T16:38:53.657Z,20.50
2022-10-16T16:41:26.781Z,22.30
2022-10-16T16:43:55.015Z,22.30
2022-10-16T16:46:23.141Z,20.80
2022-10-16T16:48:55.210Z,20.40
2022-10-16T16:51:22.521Z,20.20
2022-10-16T16:53:55.281Z,20.20
2022-10-16T16:56:23.978Z,20.80
2022-10-16T16:58:53.449Z,20.10
2022-10-16T17:01:21.993Z,20.90
2022-10-16T17:03:52.770Z,20.00
2022-10-16T17:06:26.648Z,19.90
2022-10-16T17:08:54.037Z,19.90
2022-10-16T17:11:26.234Z,19.80
2022-10-16T17:13:57.137Z,19.80
2022-10-16T17:16:37.134Z,21.40
2022-10-16T17:19:08.662Z,19.70
2022-10-16T17:21:36.746Z,21.10
2022-10-16T17:24:04.302Z,19.60
2022-10-16T17:26:32.893Z,19.60
2022-10-16T17:29:02.060Z,19.50
2022-10-16T17:31:36.338Z,19.50
2022-10-16T17:34:08.974Z,19.40
2022-10-16T17:36:38.850Z,19.60
2022-10-16T17:39:08.840Z,19.60
2022-10-16T17:41:37.442Z,19.30
2022-10-16T17:44:08.692Z,19.30
2022-10-16T17:46:40.036Z,19.20
2022-10-16T17:49:10.669Z,19.20
2022-10-16T17:51:37.615Z,19.20
2022-10-16T17:54:04.759Z,20.90
2022-10-16T17:56:33.577Z,19.00
2022-10-16T17:59:01.941Z,19.00
2022-10-16T18:01:40.326Z,19.00
2022-10-16T18:04:13.067Z,19.00
2022-10-16T18:06:41.849Z,19.00
2022-10-16T18:09:11.463Z,20.00
2022-10-16T18:11:38.739Z,18.90
2022-10-16T18:14:05.621Z,18.90
2022-10-16T18:16:32.755Z,19.00
2022-10-16T18:19:00.010Z,20.20
2022-10-16T18:21:28.552Z,20.00
2022-10-16T18:23:56.081Z,20.20
2022-10-16T18:26:23.930Z,18.90
2022-10-16T18:28:56.564Z,18.80
2022-10-16T18:31:26.211Z,18.80
2022-10-16T18:33:54.091Z,18.70
2022-10-16T18:36:25.151Z,18.60
2022-10-16T18:38:52.959Z,18.60
2022-10-16T18:41:19.967Z,18.40
2022-10-16T18:43:47.868Z,18.40
2022-10-16T18:46:22.265Z,18.40
2022-10-16T18:48:51.150Z,19.90
2022-10-16T18:51:24.142Z,19.40
2022-10-16T18:53:56.090Z,19.60
2022-10-16T18:56:25.214Z,18.10
2022-10-16T18:58:53.849Z,18.00
2022-10-16T19:01:24.774Z,18.00
2022-10-16T19:03:59.478Z,20.00
2022-10-16T19:06:28.620Z,17.90
2022-10-16T19:08:56.853Z,18.00
2022-10-16T19:11:25.891Z,17.80
2022-10-16T19:13:56.243Z,18.60
2022-10-16T19:16:31.362Z,17.70
2022-10-16T19:19:01.824Z,18.90
2022-10-16T19:21:30.636Z,19.10
2022-10-16T19:24:03.052Z,18.90
2022-10-16T19:26:34.766Z,19.70
2022-10-16T19:29:04.992Z,17.50
2022-10-16T19:31:32.141Z,17.50
2022-10-16T19:34:03.110Z,19.60
2022-10-16T19:36:35.890Z,17.40
2022-10-16T19:39:11.951Z,19.20
2022-10-16T19:41:39.089Z,17.40
2022-10-16T19:44:11.770Z,18.70
2022-10-16T19:46:39.000Z,17.40
2022-10-16T19:49:10.551Z,17.40
2022-10-16T19:51:38.260Z,17.40
2022-10-16T19:54:09.038Z,17.40
2022-10-16T19:56:37.403Z,17.40
2022-10-16T19:59:07.101Z,17.20
2022-10-16T20:01:35.007Z,17.90
2022-10-16T20:04:03.838Z,17.40
2022-10-16T20:06:31.037Z,17.40
2022-10-16T20:08:59.321Z,19.20
2022-10-16T20:11:30.708Z,16.30
2022-10-16T20:13:59.260Z,17.30
2022-10-16T20:16:28.699Z,19.20
2022-10-16T20:18:56.106Z,17.40
2022-10-16T20:21:29.741Z,18.70
2022-10-16T20:23:59.629Z,19.20
2022-10-16T20:26:27.104Z,17.90
2022-10-16T20:28:55.297Z,18.70
2022-10-16T20:31:29.936Z,17.30
2022-10-16T20:34:02.075Z,18.30
2022-10-16T20:36:31.289Z,18.60
2022-10-16T20:38:59.693Z,17.20
2022-10-16T20:41:26.750Z,17.20
2022-10-16T20:43:54.236Z,19.20
2022-10-16T20:46:25.693Z,17.20
2022-10-16T20:48:54.702Z,16.20
2022-10-16T20:51:31.285Z,17.10
2022-10-16T20:54:05.289Z,17.00
2022-10-16T20:56:36.079Z,16.90
2022-10-16T20:59:04.100Z,17.00
2022-10-16T21:01:36.416Z,18.60
2022-10-16T21:04:07.464Z,16.90
2022-10-16T21:06:39.062Z,16.80
2022-10-16T21:09:07.996Z,18.20
2022-10-16T21:11:37.592Z,18.20
2022-10-16T21:14:07.786Z,17.90
2022-10-16T21:16:35.128Z,19.20
2022-10-16T21:19:02.319Z,16.40
2022-10-16T21:21:33.696Z,16.50
2022-10-16T21:24:02.002Z,16.50
2022-10-16T21:26:30.506Z,16.40
2022-10-16T21:29:07.449Z,16.40
2022-10-16T21:31:35.749Z,16.30
2022-10-16T21:34:03.703Z,14.80
2022-10-16T21:36:36.960Z,17.40
2022-10-16T21:39:12.610Z,17.90
2022-10-16T21:41:41.106Z,15.10
2022-10-16T21:44:09.072Z,16.10
2022-10-16T21:46:39.215Z,16.20
2022-10-16T21:49:11.005Z,17.50
2022-10-16T21:51:45.434Z,16.20
2022-10-16T21:54:20.026Z,16.10
2022-10-16T21:56:47.268Z,17.20
2022-10-16T21:59:14.823Z,16.10
2022-10-16T22:01:43.197Z,17.50
2022-10-16T22:04:16.294Z,16.10
2022-10-16T22:06:44.232Z,17.90
2022-10-16T22:09:14.306Z,16.20
2022-10-16T22:11:44.066Z,17.60
2022-10-16T22:14:20.082Z,17.10
2022-10-16T22:16:48.573Z,17.60
2022-10-16T22:19:20.172Z,16.30
2022-10-16T22:21:51.676Z,15.40
2022-10-16T22:24:21.627Z,16.40
2022-10-16T22:26:49.178Z,16.30
2022-10-16T22:29:16.763Z,16.30
2022-10-16T22:31:44.790Z,16.40
2022-10-16T22:34:14.299Z,16.20
2022-10-16T22:36:41.516Z,18.00
2022-10-16T22:39:09.825Z,16.40
2022-10-16T22:41:37.385Z,16.40
2022-10-16T22:44:04.415Z,16.60
2022-10-16T22:46:34.161Z,16.40
2022-10-16T22:49:01.067Z,16.40
2022-10-16T22:51:28.409Z,18.10
2022-10-16T22:53:58.798Z,16.50
2022-10-16T22:56:26.859Z,16.60
2022-10-16T22:58:54.000Z,17.40
2022-10-16T23:01:29.609Z,16.40
2022-10-16T23:03:57.267Z,16.30
2022-10-16T23:06:24.965Z,16.80
2022-10-16T23:08:59.136Z,18.30
2022-10-16T23:11:28.037Z,16.30
2022-10-16T23:13:55.671Z,16.20
2022-10-16T23:16:23.458Z,17.40
2022-10-16T23:18:51.053Z,16.70
2022-10-16T23:21:25.204Z,16.60
2022-10-16T23:23:54.101Z,17.30
2022-10-16T23:26:26.969Z,16.30
2022-10-16T23:28:57.755Z,16.20
2022-10-16T23:31:25.600Z,18.40
2022-10-16T23:33:52.629Z,18.40
2022-10-16T23:36:21.314Z,17.90
2022-10-16T23:38:49.313Z,18.10
2022-10-16T23:41:18.532Z,17.90
2022-10-16T23:43:45.572Z,16.10
2022-10-16T23:46:14.866Z,16.10
2022-10-16T23:48:42.481Z,18.20
2022-10-16T23:51:10.494Z,18.40
2022-10-16T23:53:38.463Z,17.80
2022-10-16T23:56:06.893Z,18.00
2022-10-16T23:58:34.524Z,16.10
